Time;durP1;ratioP1;P1;durP2;ratioP2;P2;SDS_P1;SDS_P2;PMS_P1;PMS_P2;Temp;Humidity;BMP_temperature;BMP_pressure;BME280_temperature;BME280_humidity;BME280_pressure;Samples;Min_cycle;Max_cycle;Signal;HPM_P1;HPM_P2
2021/12/20 00:02:12;;;;;;;17.47;12.57;;;;;;;-143.84;81.86;45191.88;5085916;28;20453;-74
2021/12/20 00:04:40;;;;;;;13.37;10.03;;;;;;;-143.84;81.58;45189.97;5085689;28;20444;-74
2021/12/20 00:07:07;;;;;;;16.00;11.20;;;;;;;-143.84;81.79;45159.50;5084240;28;20957;-74
2021/12/20 00:09:34;;;;;;;17.57;11.63;;;;;;;-143.84;81.70;45186.16;5084868;28;20440;-74
2021/12/20 00:12:02;;;;;;;19.10;12.87;;;;;;;-143.84;82.01;45142.38;5085148;28;20535;-74
2021/12/20 00:14:31;;;;;;;16.40;11.87;;;;;;;-143.84;81.38;45197.59;5085156;28;20447;-74
2021/12/20 00:16:58;;;;;;;16.83;11.50;;;;;;;-143.84;81.38;45186.16;5082696;28;20439;-74
2021/12/20 00:19:26;;;;;;;21.77;12.40;;;;;;;-143.84;81.36;45191.88;5085217;28;21447;-74
2021/12/20 00:21:53;;;;;;;15.00;11.63;;;;;;;-143.84;80.85;45189.97;5084539;28;20497;-74
2021/12/20 00:24:20;;;;;;;26.13;11.40;;;;;;;-143.84;80.93;45186.16;5081694;28;20479;-75
2021/12/20 00:26:47;;;;;;;16.13;10.80;;;;;;;-143.84;80.70;45203.31;5086094;28;20554;-74
2021/12/20 00:29:14;;;;;;;15.43;11.20;;;;;;;-143.84;80.78;45203.31;5084646;28;20476;-74
2021/12/20 00:31:43;;;;;;;16.10;11.50;;;;;;;-143.84;80.72;45172.84;5085289;28;20444;-70
2021/12/20 00:34:10;;;;;;;18.90;11.80;;;;;;;-143.84;81.09;45186.16;5083167;28;20452;-70
2021/12/20 00:36:38;;;;;;;15.10;10.60;;;;;;;-143.84;80.82;45188.06;5084000;28;20451;-70
2021/12/20 00:41:49;;;;;;;13.53;10.40;;;;;;;-143.84;80.77;45174.75;5085039;28;20451;-70
2021/12/20 00:44:17;;;;;;;17.53;12.67;;;;;;;-143.84;80.76;45176.66;5067635;28;21005;-70
2021/12/20 00:46:45;;;;;;;15.80;10.80;;;;;;;-143.84;80.68;45186.16;5084158;28;20480;-70
2021/12/20 00:49:13;;;;;;;14.97;10.20;;;;;;;-143.84;80.56;45193.78;5083662;28;20451;-70
2021/12/20 00:51:40;;;;;;;15.50;11.70;;;;;;;-143.84;80.19;45180.47;5083810;28;20492;-70
2021/12/20 00:54:07;;;;;;;12.83;9.47;;;;;;;-143.84;79.87;45170.94;5084762;28;20977;-70
2021/12/20 00:56:34;;;;;;;15.93;10.83;;;;;;;-143.84;80.19;45188.06;5083831;28;20517;-70
2021/12/20 00:59:01;;;;;;;15.63;10.87;;;;;;;-143.84;80.08;45169.03;5085295;28;20433;-70
2021/12/20 01:01:28;;;;;;;25.07;10.93;;;;;;;-143.84;80.11;45188.06;5083277;28;20455;-70
2021/12/20 01:03:57;;;;;;;15.77;10.67;;;;;;;-143.84;80.35;45174.75;5084037;28;20440;-70
2021/12/20 01:06:24;;;;;;;14.40;10.43;;;;;;;-143.84;80.26;45163.31;5084590;28;20552;-70
2021/12/20 01:08:52;;;;;;;18.30;10.37;;;;;;;-143.84;80.59;45189.97;5084800;28;20456;-70
2021/12/20 01:11:23;;;;;;;17.70;10.90;;;;;;;-143.84;80.77;45159.50;5083880;28;20540;-70
2021/12/20 01:13:51;;;;;;;13.83;10.70;;;;;;;-143.84;80.82;45195.69;5082893;28;20482;-70
2021/12/20 01:16:18;;;;;;;14.23;11.23;;;;;;;-143.84;80.86;45197.59;5084697;28;20476;-70
2021/12/20 01:18:46;;;;;;;13.23;10.00;;;;;;;-143.84;81.07;45195.69;5082995;28;20822;-70
2021/12/20 01:21:15;;;;;;;17.33;11.87;;;;;;;-143.84;81.08;45172.84;5084127;28;20859;-70
2021/12/20 01:23:42;;;;;;;11.90;9.13;;;;;;;-143.84;81.36;45178.56;5084112;28;20494;-70
2021/12/20 01:26:09;;;;;;;14.50;10.70;;;;;;;-143.84;81.18;45150.00;5083421;28;20479;-70
2021/12/20 01:28:36;;;;;;;13.90;10.50;;;;;;;-143.84;81.19;45174.75;5065812;28;20455;-70
2021/12/20 01:31:03;;;;;;;20.00;11.80;;;;;;;-143.84;80.88;45210.94;5082813;28;20462;-70
2021/12/20 01:33:30;;;;;;;18.10;10.00;;;;;;;-143.84;80.67;45195.69;5082810;28;20521;-70
2021/12/20 01:35:58;;;;;;;14.57;10.67;;;;;;;-143.84;80.77;45191.88;5083271;28;20448;-70
2021/12/20 01:38:27;;;;;;;15.77;9.60;;;;;;;-143.84;80.43;45172.84;5083130;28;20459;-70
2021/12/20 01:40:54;;;;;;;16.30;11.97;;;;;;;-143.84;80.65;45191.88;5082466;28;20537;-70
2021/12/20 01:43:21;;;;;;;14.60;11.03;;;;;;;-143.84;80.79;45201.41;5084612;28;20459;-70
2021/12/20 01:45:50;;;;;;;21.17;10.90;;;;;;;-143.84;80.59;45174.75;5082890;28;20552;-70
2021/12/20 01:48:19;;;;;;;14.70;11.10;;;;;;;-143.84;80.82;45178.56;5085692;28;20457;-70
2021/12/20 01:53:34;;;;;;;18.63;12.83;;;;;;;-143.84;81.41;45176.66;5089710;28;20562;-70
2021/12/20 01:56:01;;;;;;;18.77;12.73;;;;;;;-143.84;81.58;45174.75;5089648;28;20454;-70
2021/12/20 01:58:30;;;;;;;16.93;12.20;;;;;;;-143.84;81.29;45199.50;5089352;28;20492;-70
2021/12/20 02:01:03;;;;;;;21.50;13.93;;;;;;;-143.84;81.30;45199.50;5089453;28;20440;-70
2021/12/20 02:03:32;;;;;;;24.33;14.60;;;;;;;-143.84;81.33;45180.47;5089266;28;20439;-70
2021/12/20 02:06:02;;;;;;;19.70;13.90;;;;;;;-143.84;81.19;45189.97;5089476;28;20535;-70
2021/12/20 02:08:30;;;;;;;19.43;14.07;;;;;;;-143.84;81.19;45193.78;5089455;28;20487;-73
2021/12/20 02:11:03;;;;;;;23.13;16.00;;;;;;;-143.84;81.37;45174.75;5089438;28;20791;-73
2021/12/20 02:13:31;;;;;;;24.00;15.17;;;;;;;-143.84;81.28;45197.59;5089216;28;20436;-73
2021/12/20 02:15:59;;;;;;;24.83;14.63;;;;;;;-143.84;81.04;45193.78;5089131;28;20440;-73
2021/12/20 02:18:27;;;;;;;23.07;15.70;;;;;;;-143.84;81.01;45184.25;5089176;28;20509;-73
2021/12/20 02:20:55;;;;;;;21.17;14.93;;;;;;;-143.84;81.08;45186.16;5089083;28;20505;-73
2021/12/20 02:23:23;;;;;;;23.43;15.67;;;;;;;-143.84;81.03;45197.59;5089090;28;20483;-72
2021/12/20 02:25:50;;;;;;;20.33;14.20;;;;;;;-143.84;81.29;45161.41;5088824;28;20548;-70
2021/12/20 02:28:20;;;;;;;23.10;14.80;;;;;;;-143.84;80.90;45197.59;5089100;28;20440;-70
2021/12/20 02:36:52;;;;;;;20.83;14.93;;;;;;;-143.84;81.04;45184.25;5088916;28;20729;-70
2021/12/20 02:39:09;;;;;;;18.60;14.07;;;;;;;-143.84;80.82;45189.97;5089023;28;20566;-70
2021/12/20 02:41:36;;;;;;;18.60;12.50;;;;;;;-143.84;80.84;45150.00;5089000;28;20490;-70
2021/12/20 02:44:05;;;;;;;17.70;12.27;;;;;;;-143.84;80.82;45191.88;5090493;28;20443;-70
2021/12/20 02:46:49;;;;;;;19.93;12.73;;;;;;;-143.84;80.71;45182.38;5074906;28;20533;-70
2021/12/20 02:49:18;;;;;;;22.97;13.50;;;;;;;-143.84;80.40;45205.22;5093152;28;20933;-70
2021/12/20 02:51:49;;;;;;;16.70;12.27;;;;;;;-143.84;79.95;45167.13;5093342;28;20436;-70
2021/12/20 02:54:16;;;;;;;22.93;13.50;;;;;;;-143.84;79.98;45174.75;5093086;28;20555;-70
2021/12/20 02:56:44;;;;;;;21.97;13.40;;;;;;;-143.84;80.16;45201.41;5093283;28;20448;-70
2021/12/20 02:59:11;;;;;;;23.33;13.93;;;;;;;-143.84;79.92;45201.41;5093392;28;20436;-70
2021/12/20 03:01:42;;;;;;;18.93;15.13;;;;;;;-143.84;79.84;45209.03;5092814;28;20436;-70
2021/12/20 03:04:10;;;;;;;17.10;13.50;;;;;;;-143.84;79.54;45199.50;5092835;28;20444;-71
2021/12/20 03:06:40;;;;;;;25.93;16.70;;;;;;;-143.84;79.56;45170.94;5092576;28;20476;-72
2021/12/20 03:09:12;;;;;;;27.20;17.27;;;;;;;-143.84;79.25;45186.16;5092681;28;20443;-71
2021/12/20 03:11:40;;;;;;;26.70;17.60;;;;;;;-143.84;79.14;45201.41;5092705;28;20440;-71
2021/12/20 03:14:15;;;;;;;23.80;16.93;;;;;;;-143.84;79.37;45174.75;5093006;28;20462;-71
2021/12/20 03:16:42;;;;;;;22.67;16.93;;;;;;;-143.84;79.87;45189.97;5092346;28;20451;-70
2021/12/20 03:19:10;;;;;;;21.60;15.33;;;;;;;-143.84;79.53;45186.16;5092584;28;20431;-70
2021/12/20 03:21:38;;;;;;;19.40;13.80;;;;;;;-143.84;79.25;45189.97;5092451;28;20447;-70
2021/12/20 03:24:06;;;;;;;24.20;16.23;;;;;;;-143.84;79.41;45212.84;5092216;28;20471;-74
2021/12/20 03:26:35;;;;;;;19.70;12.80;;;;;;;-143.84;79.25;45209.03;5093243;28;20905;-74
2021/12/20 03:29:04;;;;;;;18.70;12.97;;;;;;;-143.84;79.52;45178.56;5092697;28;20942;-74
2021/12/20 03:31:31;;;;;;;16.97;12.03;;;;;;;-143.84;79.60;45189.97;5092826;28;20435;-74
2021/12/20 03:33:59;;;;;;;17.90;12.10;;;;;;;-143.84;79.37;45199.50;5074804;28;20514;-74
2021/12/20 03:36:26;;;;;;;19.90;11.87;;;;;;;-143.84;79.63;45186.16;5092697;28;20452;-74
2021/12/20 03:38:53;;;;;;;16.50;11.90;;;;;;;-143.84;79.39;45172.84;5092785;28;20466;-74
2021/12/20 03:41:21;;;;;;;12.53;10.67;;;;;;;-143.84;79.17;45184.25;5092055;28;20452;-74
2021/12/20 03:43:49;;;;;;;24.57;11.10;;;;;;;-143.84;79.51;45222.34;5092947;28;20477;-74
2021/12/20 03:46:17;;;;;;;18.30;11.23;;;;;;;-143.84;79.29;45191.88;5092446;28;21008;-74
2021/12/20 03:48:45;;;;;;;16.40;11.67;;;;;;;-143.84;79.46;45201.41;5092530;28;20440;-74
2021/12/20 03:51:12;;;;;;;18.10;11.80;;;;;;;-143.84;79.55;45176.66;5092315;28;20454;-74
2021/12/20 03:53:39;;;;;;;17.40;11.13;;;;;;;-143.84;79.91;45197.59;5092439;28;20436;-74
2021/12/20 03:56:07;;;;;;;21.83;12.50;;;;;;;-143.84;80.29;45170.94;5092141;28;21034;-74
2021/12/20 03:58:34;;;;;;;19.20;12.77;;;;;;;-143.84;80.70;45209.03;5092564;28;20432;-74
2021/12/20 04:01:06;;;;;;;17.20;12.03;;;;;;;-143.84;81.09;45203.31;5092152;28;20443;-74
2021/12/20 04:03:35;;;;;;;18.43;12.53;;;;;;;-143.84;81.67;45165.22;5092413;28;20443;-74
2021/12/20 04:06:03;;;;;;;20.00;12.80;;;;;;;-143.84;81.39;45170.94;5092208;28;20436;-74
2021/12/20 04:08:30;;;;;;;19.30;12.40;;;;;;;-143.84;81.84;45209.03;5091700;28;20440;-72
2021/12/20 04:10:58;;;;;;;16.10;10.97;;;;;;;-143.84;82.28;45140.47;5091462;28;20440;-72
2021/12/20 04:13:25;;;;;;;16.80;11.80;;;;;;;-143.84;82.43;45169.03;5091606;28;20515;-71
2021/12/20 04:15:53;;;;;;;14.37;10.23;;;;;;;-143.84;82.65;45140.47;5091365;28;20497;-71
2021/12/20 04:18:22;;;;;;;13.03;10.40;;;;;;;-143.84;82.38;45163.31;5091354;28;20440;-71
2021/12/20 04:20:49;;;;;;;14.97;10.63;;;;;;;-143.84;82.52;45176.66;5091299;28;20436;-71
2021/12/20 04:23:17;;;;;;;16.00;10.77;;;;;;;-143.84;82.61;45150.00;5091409;28;20540;-71
2021/12/20 04:25:44;;;;;;;14.13;9.77;;;;;;;-143.84;82.98;45174.75;5091288;28;20489;-71
2021/12/20 04:28:11;;;;;;;11.33;9.73;;;;;;;-143.84;82.82;45176.66;5091163;28;20475;-71
2021/12/20 04:30:39;;;;;;;11.53;9.30;;;;;;;-143.84;82.72;45153.81;5091602;28;20444;-71
2021/12/20 04:33:06;;;;;;;13.23;10.37;;;;;;;-143.84;82.78;45184.25;5090167;28;20444;-72
2021/12/20 04:35:35;;;;;;;13.13;10.03;;;;;;;-143.84;82.72;45180.47;5090726;28;20444;-71
2021/12/20 04:38:03;;;;;;;11.50;8.73;;;;;;;-143.84;82.39;45172.84;5090908;28;21001;-71
2021/12/20 04:40:30;;;;;;;15.17;9.30;;;;;;;-143.84;82.52;45161.41;5090400;28;20499;-71
2021/12/20 04:42:59;;;;;;;12.17;8.57;;;;;;;-143.84;82.36;45178.56;5090905;28;20458;-71
2021/12/20 04:45:28;;;;;;;11.20;9.03;;;;;;;-143.84;82.44;45146.19;5090563;28;20444;-71
2021/12/20 04:47:57;;;;;;;12.47;9.30;;;;;;;-143.84;82.55;45178.56;5090411;28;20536;-71
2021/12/20 04:50:26;;;;;;;17.67;9.40;;;;;;;-143.84;82.37;45178.56;5086224;28;20514;-72
2021/12/20 04:52:55;;;;;;;16.23;9.00;;;;;;;-143.84;82.44;45153.81;5090887;28;20436;-71
2021/12/20 04:55:23;;;;;;;14.13;9.60;;;;;;;-143.84;82.34;45144.28;5090940;28;20451;-72
2021/12/20 04:57:52;;;;;;;13.50;9.73;;;;;;;-143.84;82.43;45191.88;5091041;28;20522;-71
2021/12/20 05:00:21;;;;;;;12.97;9.30;;;;;;;-143.84;82.36;45205.22;5090502;28;20447;-71
2021/12/20 05:02:49;;;;;;;9.90;8.73;;;;;;;-143.84;82.04;45151.91;5089803;28;20505;-71
2021/12/20 05:05:16;;;;;;;16.53;9.50;;;;;;;-143.84;82.20;45172.84;5090283;28;20444;-71
2021/12/20 05:07:44;;;;;;;10.30;8.57;;;;;;;-143.84;82.22;45153.81;5089754;28;20532;-71
2021/12/20 05:10:24;;;;;;;11.20;9.30;;;;;;;-143.84;82.25;45176.66;5090262;28;20442;-72
2021/12/20 05:12:52;;;;;;;10.30;8.70;;;;;;;-143.84;82.58;45193.78;5089633;28;20519;-70
2021/12/20 05:15:19;;;;;;;10.40;8.67;;;;;;;-143.84;82.63;45167.13;5091802;28;20459;-71
2021/12/20 05:17:46;;;;;;;12.93;9.60;;;;;;;-143.84;82.38;45153.81;5089575;28;20428;-71
2021/12/20 05:20:14;;;;;;;12.17;9.33;;;;;;;-143.84;82.04;45167.13;5089344;28;20451;-71
2021/12/20 05:22:41;;;;;;;12.20;8.77;;;;;;;-143.84;82.52;45157.59;5085656;28;20551;-71
2021/12/20 05:25:09;;;;;;;12.57;9.00;;;;;;;-143.84;82.12;45193.78;5089217;28;20451;-71
2021/12/20 05:27:38;;;;;;;13.63;9.60;;;;;;;-143.84;82.15;45161.41;5090214;28;20545;-71
2021/12/20 05:30:10;;;;;;;12.20;9.10;;;;;;;-143.84;82.17;45167.13;5088303;28;20878;-71
2021/12/20 05:32:37;;;;;;;11.40;8.93;;;;;;;-143.84;82.48;45146.19;5089099;28;20851;-71
2021/12/20 05:35:06;;;;;;;13.23;8.87;;;;;;;-143.84;82.58;45176.66;5089585;28;20513;-71
2021/12/20 05:37:34;;;;;;;13.50;9.80;;;;;;;-143.84;82.75;45161.41;5089357;28;20447;-71
2021/12/20 05:40:01;;;;;;;10.20;8.73;;;;;;;-143.84;82.70;45151.91;5088282;28;20942;-71
2021/12/20 05:42:28;;;;;;;10.77;9.07;;;;;;;-143.84;83.10;45186.16;5087886;28;20466;-71
2021/12/20 05:44:57;;;;;;;12.63;9.73;;;;;;;-143.84;82.99;45169.03;5088364;28;20436;-71
2021/12/20 05:47:24;;;;;;;18.57;11.03;;;;;;;-143.84;83.63;45186.16;5087716;28;20509;-71
2021/12/20 05:49:52;;;;;;;14.47;10.50;;;;;;;-143.84;83.60;45153.81;5088275;28;20466;-71
2021/12/20 05:52:19;;;;;;;11.93;9.60;;;;;;;-143.84;83.71;45140.47;5088346;28;20436;-71
2021/12/20 05:54:46;;;;;;;23.53;13.87;;;;;;;-143.84;83.95;45132.84;5088989;28;20448;-71
2021/12/20 05:57:14;;;;;;;17.63;12.23;;;;;;;-143.84;84.57;45165.22;5089392;28;20497;-71
2021/12/20 05:59:41;;;;;;;12.40;10.07;;;;;;;-143.84;84.13;45193.78;5089562;28;20444;-72
2021/12/20 06:02:09;;;;;;;11.97;10.07;;;;;;;-143.84;84.00;45150.00;5088827;28;20941;-72
2021/12/20 06:04:36;;;;;;;15.83;10.70;;;;;;;-143.84;84.34;45151.91;5087499;28;20449;-70
2021/12/20 06:07:04;;;;;;;14.87;10.50;;;;;;;-143.84;84.72;45130.94;5087622;28;20528;-70
2021/12/20 06:09:32;;;;;;;13.27;10.30;;;;;;;-143.84;85.25;45108.09;5087619;28;20475;-71
2021/12/20 06:12:00;;;;;;;21.60;11.90;;;;;;;-143.84;86.00;45144.28;5087068;28;20450;-71
2021/12/20 06:14:28;;;;;;;17.20;11.10;;;;;;;-143.84;86.17;45100.47;5087452;28;20436;-71
2021/12/20 06:16:57;;;;;;;12.13;9.80;;;;;;;-143.84;86.56;45104.28;5088051;28;21355;-71
2021/12/20 06:19:27;;;;;;;17.67;11.30;;;;;;;-143.84;86.68;45098.56;5088153;28;20527;-71
2021/12/20 06:21:55;;;;;;;14.97;9.80;;;;;;;-143.84;87.30;45070.00;5087993;28;20879;-71
2021/12/20 06:24:23;;;;;;;12.43;9.27;;;;;;;-143.84;87.48;45035.75;5096663;28;20479;-71
2021/12/20 06:26:50;;;;;;;13.10;10.17;;;;;;;-143.84;87.56;45047.16;5097465;28;20443;-71
2021/12/20 06:29:18;;;;;;;24.73;13.20;;;;;;;-143.84;87.51;45030.03;5099525;28;20439;-73
2021/12/20 06:31:45;;;;;;;16.00;9.83;;;;;;;-143.84;87.34;45035.75;5097853;28;20849;-73
2021/12/20 06:34:12;;;;;;;13.47;10.70;;;;;;;-143.84;87.41;45052.88;5097314;28;20895;-71
2021/12/20 06:36:41;;;;;;;13.10;9.30;;;;;;;-143.84;87.55;45012.88;5093816;28;20508;-71
2021/12/20 06:39:08;;;;;;;23.17;13.80;;;;;;;-143.84;87.95;44953.88;5098167;28;20502;-71
2021/12/20 06:41:36;;;;;;;14.23;10.57;;;;;;;-143.84;88.41;44944.34;5097172;28;20436;-71
2021/12/20 06:44:04;;;;;;;14.63;9.90;;;;;;;-143.84;88.79;44965.28;5098191;28;20492;-71
2021/12/20 06:46:33;;;;;;;11.70;9.93;;;;;;;-143.84;88.96;44870.09;5089089;28;20853;-71
2021/12/20 06:49:00;;;;;;;13.57;9.80;;;;;;;-143.84;88.99;44898.66;5092696;28;20484;-71
2021/12/20 06:51:28;;;;;;;16.80;9.60;;;;;;;-143.84;88.71;44904.34;5093928;28;20444;-73
2021/12/20 06:53:56;;;;;;;12.30;9.80;;;;;;;-143.84;88.73;44931.00;5104392;28;20450;-73
2021/12/20 06:56:24;;;;;;;10.83;9.57;;;;;;;-143.84;88.84;44911.97;5095746;28;20439;-73
2021/12/20 06:58:53;;;;;;;12.03;9.43;;;;;;;-143.84;88.75;44902.44;5094732;28;20469;-73
2021/12/20 07:01:21;;;;;;;12.40;9.90;;;;;;;-143.84;88.93;44944.34;5092904;28;20478;-73
2021/12/20 07:03:49;;;;;;;24.47;15.67;;;;;;;-143.84;88.87;44847.22;5106202;28;20525;-71
2021/12/20 07:06:17;;;;;;;22.13;14.87;;;;;;;-143.84;88.83;44881.50;5103569;28;20648;-71
2021/12/20 07:08:44;;;;;;;12.13;10.40;;;;;;;-143.84;89.07;44902.44;5098758;28;20476;-71
2021/12/20 07:11:13;;;;;;;12.50;10.20;;;;;;;-143.84;88.40;44894.84;5097038;28;20439;-71
2021/12/20 07:13:40;;;;;;;11.80;10.60;;;;;;;-143.84;88.42;44942.44;5098185;28;20431;-73
2021/12/20 07:16:08;;;;;;;10.70;9.20;;;;;;;-143.84;88.78;44908.16;5098731;28;20431;-73
2021/12/20 07:18:36;;;;;;;15.57;10.67;;;;;;;-143.84;88.59;44913.88;5095915;28;20451;-73
2021/12/20 07:21:03;;;;;;;12.93;9.70;;;;;;;-143.84;88.67;44921.50;5096142;28;20431;-73
2021/12/20 07:23:30;;;;;;;13.43;10.30;;;;;;;-143.84;88.39;44974.81;5094922;28;20525;-73
2021/12/20 07:25:58;;;;;;;13.10;10.87;;;;;;;-143.84;88.40;44963.38;5096814;28;20443;-73
2021/12/20 07:28:26;;;;;;;15.63;11.03;;;;;;;-143.84;88.13;44948.16;5097800;28;20478;-74
2021/12/20 07:30:54;;;;;;;14.53;11.83;;;;;;;-143.84;88.52;44955.75;5097914;28;20980;-74
2021/12/20 07:33:21;;;;;;;16.80;11.10;;;;;;;-143.84;88.08;45005.28;5098492;28;20957;-73
2021/12/20 07:35:49;;;;;;;15.37;11.17;;;;;;;-143.84;87.85;44978.63;5100026;28;21224;-73
2021/12/20 07:38:16;;;;;;;13.60;10.73;;;;;;;-143.84;87.63;45003.38;5100449;28;20444;-73
2021/12/20 07:40:44;;;;;;;11.73;9.33;;;;;;;-143.84;87.61;44993.84;5096650;28;20450;-73
2021/12/20 07:43:11;;;;;;;10.13;9.00;;;;;;;-143.84;87.24;45016.69;5100014;28;20526;-73
2021/12/20 07:45:40;;;;;;;11.53;9.50;;;;;;;-143.84;87.13;45049.06;5101661;28;20465;-71
2021/12/20 07:48:07;;;;;;;13.03;9.80;;;;;;;-143.84;86.51;45062.41;5100247;28;20513;-71
2021/12/20 07:50:34;;;;;;;16.17;11.20;;;;;;;-143.84;86.61;45094.78;5100182;28;20447;-71
2021/12/20 07:53:02;;;;;;;15.07;10.03;;;;;;;-143.84;86.81;45024.31;5099692;28;20451;-71
2021/12/20 07:55:29;;;;;;;13.23;9.47;;;;;;;-143.84;86.74;45071.91;5088260;28;20865;-71
2021/12/20 07:57:57;;;;;;;12.10;9.50;;;;;;;-143.84;86.78;45056.69;5089165;28;20452;-71
2021/12/20 08:00:25;;;;;;;12.20;10.27;;;;;;;-143.84;86.42;45087.16;5087606;28;20543;-71
2021/12/20 08:02:54;;;;;;;14.13;10.80;;;;;;;-143.84;86.00;45043.34;5082190;28;20490;-71
2021/12/20 08:05:22;;;;;;;19.73;12.30;;;;;;;-143.84;85.76;45100.47;5083747;28;20491;-70
2021/12/20 08:07:50;;;;;;;12.27;9.77;;;;;;;-143.84;85.48;45098.56;5080635;28;20495;-70
2021/12/20 08:10:18;;;;;;;16.90;10.57;;;;;;;-143.84;85.28;45144.28;5081719;28;20448;-70
2021/12/20 08:12:46;;;;;;;11.17;9.60;;;;;;;-143.84;85.59;45081.44;5081285;28;20479;-71
2021/12/20 08:15:14;;;;;;;15.77;10.73;;;;;;;-143.84;85.10;45119.53;5080693;28;20455;-70
2021/12/20 08:17:41;;;;;;;13.90;9.97;;;;;;;-143.84;85.01;45108.09;5080631;28;20459;-70
2021/12/20 08:20:13;;;;;;;11.90;10.73;;;;;;;-143.84;84.48;45193.78;5081207;28;20464;-71
2021/12/20 08:22:40;;;;;;;14.20;9.80;;;;;;;-143.84;84.88;45125.22;5081256;28;20460;-70
2021/12/20 08:25:09;;;;;;;11.00;9.20;;;;;;;-143.84;84.30;45144.28;5059944;28;20457;-70
2021/12/20 08:27:37;;;;;;;12.10;9.93;;;;;;;-143.84;84.25;45144.28;5060420;28;20499;-71
2021/12/20 08:30:05;;;;;;;12.17;9.30;;;;;;;-143.84;84.11;45125.22;5040997;28;20479;-70
2021/12/20 08:32:33;;;;;;;13.53;8.70;;;;;;;-143.84;84.29;45115.72;5060424;28;20445;-70
2021/12/20 08:35:00;;;;;;;15.03;9.87;;;;;;;-143.84;83.75;45144.28;5060015;28;20454;-71
2021/12/20 08:37:28;;;;;;;12.43;10.10;;;;;;;-143.84;84.01;45155.69;5060235;28;20538;-70
2021/12/20 08:39:56;;;;;;;12.90;9.87;;;;;;;-143.84;83.69;45167.13;5064068;28;20463;-70
2021/12/20 08:42:23;;;;;;;14.83;10.07;;;;;;;-143.84;83.94;45148.09;5062886;28;20822;-71
2021/12/20 08:44:50;;;;;;;11.63;9.23;;;;;;;-143.84;83.17;45170.94;5061171;28;20968;-71
2021/12/20 08:47:18;;;;;;;15.07;9.83;;;;;;;-143.84;82.79;45144.28;5062349;28;20457;-70
2021/12/20 08:49:45;;;;;;;12.70;9.67;;;;;;;-143.84;82.98;45155.69;5062352;28;20567;-71
2021/12/20 08:52:13;;;;;;;15.10;10.87;;;;;;;-143.84;83.18;45144.28;5061770;28;20958;-70
2021/12/20 08:54:42;;;;;;;23.13;14.77;;;;;;;-143.84;82.25;45129.03;5061930;28;20801;-71
2021/12/20 08:57:09;;;;;;;13.57;11.03;;;;;;;-143.84;82.21;45140.47;5062388;28;20506;-70
2021/12/20 08:59:37;;;;;;;15.77;10.80;;;;;;;-143.84;82.47;45163.31;5060126;28;20476;-71
2021/12/20 09:02:07;;;;;;;21.40;12.87;;;;;;;-143.84;82.54;45174.75;5058856;28;20487;-70
2021/12/20 09:04:34;;;;;;;22.97;14.90;;;;;;;-143.84;81.42;45174.75;5039313;28;20457;-70
2021/12/20 09:07:01;;;;;;;16.33;12.20;;;;;;;-143.84;81.70;45189.97;5059662;28;20485;-71
2021/12/20 09:09:29;;;;;;;13.70;9.67;;;;;;;-143.84;81.30;45176.66;5061715;28;20480;-70
2021/12/20 09:11:58;;;;;;;14.00;9.93;;;;;;;-143.84;81.04;45167.13;5061983;28;20460;-70
2021/12/20 09:14:25;;;;;;;13.37;10.23;;;;;;;-143.84;81.05;45176.66;5062934;28;21093;-70
2021/12/20 09:16:53;;;;;;;11.00;8.70;;;;;;;-143.84;80.73;45161.41;5062914;28;20460;-70
2021/12/20 09:19:21;;;;;;;12.10;8.67;;;;;;;-143.84;80.88;45174.75;5061254;28;20452;-70
2021/12/20 09:21:49;;;;;;;9.90;8.27;;;;;;;-143.84;80.45;45163.31;5060767;28;20536;-70
2021/12/20 09:24:16;;;;;;;13.77;9.07;;;;;;;-143.84;80.39;45163.31;5074413;28;20483;-70
2021/12/20 09:26:43;;;;;;;17.83;11.90;;;;;;;-143.84;80.47;45199.50;5080866;28;20452;-70
2021/12/20 09:29:12;;;;;;;11.20;8.70;;;;;;;-143.84;80.56;45144.28;5081157;28;20480;-70
2021/12/20 09:31:39;;;;;;;12.57;9.50;;;;;;;-143.84;80.67;45163.31;5079262;28;20447;-70
2021/12/20 09:34:06;;;;;;;9.27;7.97;;;;;;;-143.84;81.01;45167.13;5089408;28;20474;-72
2021/12/20 09:36:33;;;;;;;11.33;9.63;;;;;;;-143.84;80.56;45169.03;5077465;28;20447;-72
2021/12/20 09:39:01;;;;;;;14.77;9.47;;;;;;;-143.84;80.82;45130.94;5084017;28;20444;-70
2021/12/20 09:44:12;;;;;;;16.23;9.27;;;;;;;-143.84;79.89;45159.50;5075881;28;20445;-73
2021/12/20 09:47:26;;;;;;;14.13;8.40;;;;;;;-143.84;79.95;45163.31;5082921;28;20464;-75
2021/12/20 09:49:55;;;;;;;12.13;9.80;;;;;;;-143.84;79.02;45199.50;5069357;28;20498;-74
2021/12/20 09:52:22;;;;;;;13.60;9.10;;;;;;;-143.84;77.75;45184.25;5085134;28;20452;-75
2021/12/20 09:54:49;;;;;;;10.60;8.27;;;;;;;-143.84;78.40;45176.66;5084008;28;20452;-75
2021/12/20 09:57:19;;;;;;;14.17;8.93;;;;;;;-143.84;78.07;45172.84;5079190;28;20444;-75
2021/12/20 09:59:51;;;;;;;9.70;8.57;;;;;;;-143.84;78.77;45191.88;5084551;28;20478;-75
2021/12/20 10:02:21;;;;;;;11.90;9.00;;;;;;;-143.84;79.56;45193.78;5081466;28;20472;-75
2021/12/20 10:04:49;;;;;;;12.60;9.03;;;;;;;-143.84;79.27;45159.50;5078685;28;20444;-75
2021/12/20 10:07:22;;;;;;;17.93;10.17;;;;;;;-143.84;80.33;45174.75;5074226;28;20468;-75
2021/12/20 10:09:50;;;;;;;12.07;9.47;;;;;;;-143.84;79.83;45150.00;5085515;28;20843;-75
2021/12/20 10:12:21;;;;;;;13.13;10.60;;;;;;;-143.84;79.67;45167.13;5090543;28;20440;-76
2021/12/20 10:15:04;;;;;;;16.63;11.33;;;;;;;-143.84;78.06;45169.03;5084725;28;20454;-75
2021/12/20 10:17:35;;;;;;;26.50;14.87;;;;;;;-143.84;78.67;45161.41;5084053;28;20495;-75
2021/12/20 10:20:20;;;;;;;13.47;11.20;;;;;;;-143.84;78.74;45169.03;5084941;28;20897;-72
2021/12/20 10:22:48;;;;;;;14.93;10.73;;;;;;;-143.84;78.48;45169.03;5082504;28;20444;-73
2021/12/20 10:25:28;;;;;;;13.17;11.20;;;;;;;-143.84;78.02;45178.56;5083421;28;20447;-73
2021/12/20 10:28:05;;;;;;;9.63;8.30;;;;;;;-143.84;77.89;45176.66;5084549;28;20573;-72
2021/12/20 10:30:36;;;;;;;10.40;8.70;;;;;;;-143.84;78.82;45174.75;5074328;28;20542;-72
2021/12/20 10:33:04;;;;;;;14.73;9.00;;;;;;;-143.84;79.54;45167.13;5078171;28;20451;-72
2021/12/20 10:35:35;;;;;;;11.93;8.70;;;;;;;-143.84;78.54;45142.38;5067482;28;20518;-72
2021/12/20 10:38:05;;;;;;;13.73;9.97;;;;;;;-143.84;78.37;45197.59;5070951;28;20426;-74
2021/12/20 10:40:34;;;;;;;10.40;8.60;;;;;;;-143.84;77.78;45201.41;5076439;28;20442;-74
2021/12/20 10:43:06;;;;;;;8.23;7.10;;;;;;;-143.84;76.89;45176.66;5075343;28;20687;-73
2021/12/20 10:45:35;;;;;;;10.00;8.20;;;;;;;-143.84;76.93;45214.72;5090055;28;20936;-72
2021/12/20 10:48:10;;;;;;;8.90;7.77;;;;;;;-143.84;77.18;45169.03;5079619;28;20464;-72
2021/12/20 10:50:42;;;;;;;10.00;7.63;;;;;;;-143.84;77.23;45180.47;5070781;28;20444;-72
2021/12/20 10:53:20;;;;;;;10.33;8.13;;;;;;;-143.84;77.51;45191.88;5090457;28;20456;-72
2021/12/20 10:55:49;;;;;;;12.73;7.50;;;;;;;-143.84;77.23;45201.41;5074118;28;20455;-73
2021/12/20 10:58:19;;;;;;;10.03;8.60;;;;;;;-143.84;77.73;45189.97;5074222;28;20440;-72
2021/12/20 11:01:02;;;;;;;10.37;7.90;;;;;;;-143.84;78.25;45176.66;5071380;28;20463;-72
2021/12/20 11:03:35;;;;;;;10.23;7.93;;;;;;;-143.84;77.67;45174.75;5069953;28;20830;-72
2021/12/20 11:06:26;;;;;;;12.07;8.27;;;;;;;-143.84;77.28;45184.25;5074056;28;20546;-72
2021/12/20 11:09:05;;;;;;;11.70;8.70;;;;;;;-143.84;78.51;45195.69;5076607;28;20490;-72
2021/12/20 11:11:34;;;;;;;12.73;9.27;;;;;;;-143.84;79.26;45191.88;5086052;28;20452;-72
2021/12/20 11:14:02;;;;;;;11.20;8.10;;;;;;;-143.84;78.14;45161.41;5078648;28;20583;-72
2021/12/20 11:16:34;;;;;;;10.37;8.80;;;;;;;-143.84;77.77;45174.75;5088406;28;20456;-72
2021/12/20 11:19:17;;;;;;;11.57;8.77;;;;;;;-143.84;78.13;45197.59;5086803;28;20451;-72
2021/12/20 11:21:50;;;;;;;12.90;9.30;;;;;;;-143.84;78.04;45186.16;5079060;28;20448;-73
2021/12/20 11:24:19;;;;;;;10.67;8.60;;;;;;;-143.84;78.17;45176.66;5082278;28;20485;-73
2021/12/20 11:26:47;;;;;;;11.60;8.87;;;;;;;-143.84;78.29;45172.84;5075960;28;20439;-73